createdAt,value
2017-05-08T00:02:14.992Z,7.70
2017-05-08T00:04:43.395Z,7.70
2017-05-08T00:07:12.864Z,7.60
2017-05-08T00:09:40.506Z,7.60
2017-05-08T00:12:08.163Z,7.70
2017-05-08T00:14:36.093Z,7.60
2017-05-08T00:17:03.731Z,7.60
2017-05-08T00:19:31.365Z,7.50
2017-05-08T00:21:59.350Z,7.50
2017-05-08T00:24:27.758Z,7.40
2017-05-08T00:26:56.156Z,7.40
2017-05-08T00:29:24.945Z,7.40
2017-05-08T00:31:52.577Z,7.30
2017-05-08T00:34:20.217Z,7.30
2017-05-08T00:36:48.185Z,7.30
2017-05-08T00:39:16.596Z,7.30
2017-05-08T00:41:44.225Z,7.20
2017-05-08T00:44:12.261Z,7.30
2017-05-08T00:46:39.902Z,7.20
2017-05-08T00:49:07.557Z,7.20
2017-05-08T00:51:36.386Z,7.10
2017-05-08T00:54:04.787Z,7.10
2017-05-08T00:56:32.439Z,7.00
2017-05-08T00:59:00.369Z,7.00
2017-05-08T01:01:28.003Z,7.00
2017-05-08T01:03:55.641Z,7.00
2017-05-08T01:06:23.636Z,6.90
2017-05-08T01:08:51.266Z,6.90
2017-05-08T01:11:18.902Z,6.90
2017-05-08T01:13:46.888Z,6.80
2017-05-08T01:16:15.290Z,6.70
2017-05-08T01:18:43.689Z,6.70
2017-05-08T01:21:11.665Z,6.70
2017-05-08T01:23:39.307Z,6.70
2017-05-08T01:26:06.940Z,6.70
2017-05-08T01:28:34.912Z,6.80
2017-05-08T01:31:02.547Z,6.80
2017-05-08T01:33:30.202Z,6.80
2017-05-08T01:35:58.157Z,6.70
2017-05-08T01:38:25.797Z,6.70
2017-05-08T01:40:53.494Z,6.70
2017-05-08T01:43:21.437Z,6.70
2017-05-08T01:45:49.077Z,6.70
2017-05-08T01:48:16.717Z,6.70
2017-05-08T01:50:45.494Z,6.70
2017-05-08T01:53:13.889Z,6.70
2017-05-08T01:55:42.289Z,6.70
2017-05-08T01:58:10.258Z,6.70
2017-05-08T02:00:37.886Z,6.80
2017-05-08T02:03:05.523Z,6.70
2017-05-08T02:05:33.501Z,6.80
2017-05-08T02:08:01.905Z,6.90
2017-05-08T02:10:31.049Z,6.80
2017-05-08T02:12:59.017Z,6.80
2017-05-08T02:15:26.648Z,6.80
2017-05-08T02:17:55.073Z,6.70
2017-05-08T02:20:23.787Z,6.70
2017-05-08T02:22:51.424Z,6.60
2017-05-08T02:25:19.060Z,6.70
2017-05-08T02:27:47.051Z,6.60
2017-05-08T02:30:14.716Z,6.50
2017-05-08T02:32:42.363Z,6.50
2017-05-08T02:35:10.376Z,6.40
2017-05-08T02:37:38.025Z,6.40
2017-05-08T02:40:06.432Z,6.40
2017-05-08T02:42:34.548Z,6.30
2017-05-08T02:45:02.168Z,6.40
2017-05-08T02:47:29.840Z,6.40
2017-05-08T02:49:58.549Z,6.40
2017-05-08T02:52:26.185Z,6.40
2017-05-08T02:54:54.600Z,6.40
2017-05-08T02:57:22.592Z,6.30
2017-05-08T02:59:50.229Z,6.40
2017-05-08T03:02:18.619Z,6.50
2017-05-08T03:04:46.732Z,6.40
2017-05-08T03:07:14.430Z,6.50
2017-05-08T03:09:42.060Z,6.50
2017-05-08T03:12:10.815Z,6.40
2017-05-08T03:14:38.452Z,6.40
2017-05-08T03:17:06.085Z,6.40
2017-05-08T03:19:34.052Z,6.40
2017-05-08T03:22:01.697Z,6.30
2017-05-08T03:24:29.336Z,6.20
2017-05-08T03:26:57.306Z,6.20
2017-05-08T03:29:24.994Z,6.20
2017-05-08T03:31:53.412Z,6.10
2017-05-08T03:34:21.366Z,6.00
2017-05-08T03:36:48.996Z,6.10
2017-05-08T03:39:17.402Z,6.10
2017-05-08T03:41:45.565Z,6.00
2017-05-08T03:44:13.204Z,6.20
2017-05-08T03:46:40.841Z,6.30
2017-05-08T03:49:08.810Z,6.40
2017-05-08T03:51:36.444Z,6.20
2017-05-08T03:54:04.077Z,6.20
2017-05-08T03:56:32.853Z,6.10
2017-05-08T03:59:01.265Z,6.20
2017-05-08T04:01:29.660Z,6.20
2017-05-08T04:03:58.454Z,6.30
2017-05-08T04:06:26.853Z,6.40
2017-05-08T04:08:54.499Z,6.40
2017-05-08T04:11:22.520Z,6.50
2017-05-08T04:13:50.157Z,6.60
2017-05-08T04:16:17.797Z,6.60
2017-05-08T04:18:45.773Z,6.60
2017-05-08T04:21:14.173Z,6.60
2017-05-08T04:23:41.809Z,6.60
2017-05-08T04:26:09.932Z,6.60
2017-05-08T04:28:37.557Z,6.70
2017-05-08T04:31:05.190Z,6.80
2017-05-08T04:33:33.882Z,7.00
2017-05-08T04:36:01.586Z,6.90
2017-05-08T04:38:29.993Z,7.10
2017-05-08T04:40:57.960Z,7.10
2017-05-08T04:43:25.598Z,7.20
2017-05-08T04:45:53.240Z,7.20
2017-05-08T04:48:22.272Z,7.40
2017-05-08T04:50:49.905Z,7.30
2017-05-08T04:53:17.554Z,7.40
2017-05-08T04:55:47.012Z,7.60
2017-05-08T04:58:15.421Z,7.70
2017-05-08T05:00:43.060Z,7.70
2017-05-08T05:03:12.528Z,7.80
2017-05-08T05:05:40.160Z,7.80
2017-05-08T05:08:08.557Z,8.00
2017-05-08T05:10:36.589Z,7.90
2017-05-08T05:13:04.984Z,8.10
2017-05-08T05:15:32.621Z,8.10
2017-05-08T05:18:02.079Z,8.50
2017-05-08T05:20:29.704Z,8.50
2017-05-08T05:22:57.349Z,8.70
2017-05-08T05:25:26.062Z,9.00
2017-05-08T05:27:53.700Z,8.90
2017-05-08T05:30:21.340Z,9.00
2017-05-08T05:32:49.285Z,9.10
2017-05-08T05:35:16.920Z,9.10
2017-05-08T05:37:44.670Z,9.10
2017-05-08T05:40:13.560Z,9.10
2017-05-08T05:42:41.952Z,9.40
2017-05-08T05:45:10.352Z,9.50
2017-05-08T05:47:39.081Z,9.60
2017-05-08T05:50:06.716Z,9.50
2017-05-08T05:52:34.348Z,9.60
2017-05-08T05:55:02.269Z,9.70
2017-05-08T05:57:29.896Z,9.80
2017-05-08T05:59:57.520Z,9.90
2017-05-08T06:02:25.565Z,10.00
2017-05-08T06:04:53.201Z,10.20
2017-05-08T06:07:21.568Z,10.30
2017-05-08T06:09:49.522Z,10.40
2017-05-08T06:12:17.158Z,10.40
2017-05-08T06:14:45.564Z,10.60
2017-05-08T06:17:13.581Z,10.50
2017-05-08T06:19:41.980Z,10.90
2017-05-08T06:22:09.628Z,10.90
2017-05-08T06:24:38.361Z,11.60
2017-05-08T06:27:06.019Z,11.50
2017-05-08T06:29:33.659Z,12.50
2017-05-08T06:32:01.622Z,13.80
2017-05-08T06:34:29.285Z,14.70
2017-05-08T06:36:56.937Z,15.10
2017-05-08T06:39:24.866Z,14.90
2017-05-08T06:41:53.269Z,14.60
2017-05-08T06:44:20.916Z,14.50
2017-05-08T06:46:49.637Z,14.50
2017-05-08T06:49:17.268Z,14.40
2017-05-08T06:51:44.953Z,14.70
2017-05-08T06:54:12.897Z,15.00
2017-05-08T06:56:41.303Z,15.40
2017-05-08T06:59:09.705Z,15.80
2017-05-08T07:01:37.731Z,15.70
2017-05-08T07:04:05.386Z,16.20
2017-05-08T07:06:33.024Z,16.20
2017-05-08T07:09:01.737Z,16.00
2017-05-08T07:11:29.381Z,15.90
2017-05-08T07:13:57.015Z,16.00
2017-05-08T07:16:25.812Z,16.30
2017-05-08T07:18:53.448Z,16.20
2017-05-08T07:21:21.841Z,19.40
2017-05-08T07:23:50.585Z,20.10
2017-05-08T07:26:18.201Z,20.00
2017-05-08T07:28:46.585Z,20.00
2017-05-08T07:31:14.557Z,20.00
2017-05-08T07:33:42.172Z,19.50
2017-05-08T07:36:09.903Z,17.80
2017-05-08T07:38:38.620Z,16.10
2017-05-08T07:41:06.257Z,16.00
2017-05-08T07:43:34.664Z,16.50
2017-05-08T07:46:02.681Z,16.40
2017-05-08T07:48:30.380Z,16.20
2017-05-08T07:50:58.012Z,15.70
2017-05-08T07:53:26.025Z,15.70
2017-05-08T07:55:53.650Z,15.50
2017-05-08T07:58:21.308Z,15.40
2017-05-08T08:00:49.273Z,15.20
2017-05-08T08:03:16.912Z,14.80
2017-05-08T08:05:44.548Z,14.50
2017-05-08T08:08:12.532Z,14.10
2017-05-08T08:10:40.164Z,13.90
2017-05-08T08:13:07.792Z,13.70
2017-05-08T08:15:35.784Z,13.60
2017-05-08T08:18:03.420Z,13.60
2017-05-08T08:20:31.054Z,13.40
2017-05-08T08:22:59.122Z,12.80
2017-05-08T08:25:26.764Z,12.20
2017-05-08T08:27:54.397Z,11.80
2017-05-08T08:30:22.360Z,11.70
2017-05-08T08:32:49.988Z,11.60
2017-05-08T08:35:17.629Z,11.40
2017-05-08T08:37:45.738Z,11.60
2017-05-08T08:40:13.381Z,11.60
2017-05-08T08:42:41.829Z,11.40
2017-05-08T08:45:09.881Z,11.30
2017-05-08T08:47:37.532Z,11.20
2017-05-08T08:50:05.945Z,10.90
2017-05-08T08:52:34.769Z,10.80
2017-05-08T08:55:03.180Z,10.90
2017-05-08T08:57:30.823Z,10.80
2017-05-08T08:59:59.522Z,10.70
2017-05-08T09:02:27.166Z,10.60
2017-05-08T09:04:55.581Z,10.70
2017-05-08T09:07:23.733Z,10.70
2017-05-08T09:09:51.376Z,10.60
2017-05-08T09:12:19.027Z,10.50
2017-05-08T09:14:47.072Z,10.50
2017-05-08T09:17:14.722Z,10.50
2017-05-08T09:19:43.141Z,10.20
2017-05-08T09:22:11.949Z,10.10
2017-05-08T09:24:40.348Z,9.70
2017-05-08T09:27:08.757Z,9.60
2017-05-08T09:29:36.753Z,9.60
2017-05-08T09:32:04.388Z,9.50
2017-05-08T09:34:32.021Z,9.40
2017-05-08T09:36:59.981Z,9.30
2017-05-08T09:39:27.620Z,9.20
2017-05-08T09:41:55.261Z,9.20
2017-05-08T09:44:23.237Z,9.10
2017-05-08T09:46:50.876Z,9.10
2017-05-08T09:49:18.533Z,8.90
2017-05-08T09:51:46.470Z,8.90
2017-05-08T09:54:14.116Z,8.90
2017-05-08T09:56:42.532Z,9.00
2017-05-08T09:59:10.544Z,8.90
2017-05-08T10:01:38.184Z,8.90
2017-05-08T10:04:05.832Z,8.90
2017-05-08T10:06:33.831Z,8.90
2017-05-08T10:09:02.236Z,8.80
2017-05-08T10:11:29.873Z,8.80
2017-05-08T10:13:58.680Z,8.80
2017-05-08T10:16:26.325Z,8.80
2017-05-08T10:18:53.974Z,8.90
2017-05-08T10:21:22.673Z,8.90
2017-05-08T10:23:50.313Z,8.90
2017-05-08T10:26:17.960Z,8.80
2017-05-08T10:28:45.884Z,8.70
2017-05-08T10:31:13.521Z,8.70
2017-05-08T10:33:41.929Z,8.60
2017-05-08T10:36:09.993Z,8.60
2017-05-08T10:38:37.634Z,8.50
2017-05-08T10:41:06.105Z,8.30
2017-05-08T10:43:34.841Z,8.40
2017-05-08T10:46:02.481Z,8.30
2017-05-08T10:48:30.900Z,8.50
2017-05-08T10:50:59.725Z,8.50
2017-05-08T10:53:27.369Z,8.50
2017-05-08T10:55:55.016Z,8.60
2017-05-08T10:58:23.010Z,8.60
2017-05-08T11:00:50.734Z,8.60
2017-05-08T11:03:18.377Z,8.60
2017-05-08T11:05:46.409Z,8.70
2017-05-08T11:08:14.060Z,8.80
2017-05-08T11:10:41.704Z,8.90
2017-05-08T11:13:09.748Z,8.90
2017-05-08T11:15:37.388Z,9.00
2017-05-08T11:18:05.815Z,9.10
2017-05-08T11:20:33.780Z,9.10
2017-05-08T11:23:02.187Z,9.20
2017-05-08T11:25:30.593Z,9.20
2017-05-08T11:27:58.617Z,9.20
2017-05-08T11:30:26.251Z,9.30
2017-05-08T11:32:54.661Z,9.40
2017-05-08T11:35:22.626Z,9.30
2017-05-08T11:37:51.032Z,9.40
2017-05-08T11:40:19.440Z,9.30
2017-05-08T11:42:48.896Z,9.20
2017-05-08T11:45:17.308Z,9.30
2017-05-08T11:47:45.718Z,9.40
2017-05-08T11:50:13.661Z,9.30
2017-05-08T11:52:41.314Z,9.40
2017-05-08T11:55:08.953Z,9.40
2017-05-08T11:57:36.933Z,9.50
2017-05-08T12:00:04.581Z,9.40
2017-05-08T12:02:33.048Z,9.30
2017-05-08T12:05:01.024Z,9.20
2017-05-08T12:07:28.664Z,9.20
2017-05-08T12:09:57.077Z,9.20
2017-05-08T12:12:25.008Z,9.20
2017-05-08T12:14:53.422Z,9.20
2017-05-08T12:17:21.073Z,9.20
2017-05-08T12:19:49.796Z,9.00
2017-05-08T12:22:18.213Z,8.90
2017-05-08T12:24:45.886Z,8.90
2017-05-08T12:27:13.911Z,8.90
2017-05-08T12:29:42.329Z,8.90
2017-05-08T12:32:10.732Z,9.00
2017-05-08T12:34:38.693Z,9.00
2017-05-08T12:37:07.099Z,9.10
2017-05-08T12:39:34.771Z,9.10
2017-05-08T12:42:02.771Z,9.20
2017-05-08T12:44:30.426Z,9.40
2017-05-08T12:46:58.061Z,9.30
2017-05-08T12:49:26.786Z,9.40
2017-05-08T12:51:55.200Z,9.30
2017-05-08T12:54:22.855Z,9.30
2017-05-08T12:56:51.653Z,9.20
2017-05-08T12:59:20.070Z,9.10
2017-05-08T13:01:47.708Z,9.10
2017-05-08T13:04:15.698Z,9.20
2017-05-08T13:06:44.856Z,9.20
2017-05-08T13:09:12.498Z,9.20
2017-05-08T13:11:40.459Z,9.20
2017-05-08T13:14:08.862Z,9.30
2017-05-08T13:16:36.520Z,9.20
2017-05-08T13:19:05.398Z,9.40
2017-05-08T13:21:33.825Z,9.40
2017-05-08T13:24:01.493Z,9.30
2017-05-08T13:26:29.504Z,9.50
2017-05-08T13:28:57.176Z,9.50
2017-05-08T13:31:24.839Z,9.60
2017-05-08T13:33:52.791Z,9.60
2017-05-08T13:36:21.202Z,9.50
2017-05-08T13:38:49.622Z,9.50
2017-05-08T13:41:17.640Z,9.40
2017-05-08T13:43:46.045Z,9.50
2017-05-08T13:46:13.684Z,9.40
2017-05-08T13:48:41.659Z,9.40
2017-05-08T13:51:10.405Z,9.40
2017-05-08T13:53:39.557Z,9.40
2017-05-08T13:56:08.333Z,9.40
2017-05-08T13:58:35.976Z,9.40
2017-05-08T14:01:03.620Z,9.30
2017-05-08T14:03:31.576Z,9.30
2017-05-08T14:05:59.905Z,9.40
2017-05-08T14:08:28.320Z,9.40
2017-05-08T14:10:56.361Z,9.30
2017-05-08T14:13:24.001Z,9.40
2017-05-08T14:15:51.636Z,9.40
2017-05-08T14:18:19.597Z,9.40
2017-05-08T14:20:47.245Z,9.40
2017-05-08T14:23:14.884Z,9.50
2017-05-08T14:25:42.881Z,9.60
2017-05-08T14:28:12.036Z,9.60
2017-05-08T14:30:40.527Z,9.70
2017-05-08T14:33:08.559Z,9.70
2017-05-08T14:35:36.992Z,9.80
2017-05-08T14:38:05.426Z,9.80
2017-05-08T14:40:34.194Z,9.70
2017-05-08T14:43:01.834Z,9.70
2017-05-08T14:45:29.473Z,9.70
2017-05-08T14:47:58.936Z,9.60
2017-05-08T14:50:26.613Z,9.60
2017-05-08T14:52:54.249Z,9.60
2017-05-08T14:55:22.196Z,9.60
2017-05-08T14:57:50.601Z,9.60
2017-05-08T15:00:19.009Z,9.70
2017-05-08T15:02:46.963Z,9.70
2017-05-08T15:05:14.605Z,9.80
2017-05-08T15:07:43.013Z,9.90
2017-05-08T15:10:10.952Z,9.90
2017-05-08T15:12:38.593Z,9.80
2017-05-08T15:15:06.258Z,9.90
2017-05-08T15:17:35.819Z,9.90
2017-05-08T15:20:03.471Z,9.90
2017-05-08T15:22:31.880Z,9.90
2017-05-08T15:25:00.700Z,10.00
2017-05-08T15:27:28.363Z,10.00
2017-05-08T15:29:56.030Z,9.90
2017-05-08T15:32:24.049Z,9.90
2017-05-08T15:34:51.702Z,10.00
2017-05-08T15:37:20.312Z,10.10
2017-05-08T15:39:49.034Z,10.10
2017-05-08T15:42:17.440Z,10.10
2017-05-08T15:44:45.089Z,10.10
2017-05-08T15:47:13.212Z,10.20
2017-05-08T15:49:41.622Z,10.20
2017-05-08T15:52:10.030Z,10.10
2017-05-08T15:54:38.204Z,10.10
2017-05-08T15:57:05.847Z,10.10
2017-05-08T15:59:33.499Z,10.10
2017-05-08T16:02:01.541Z,10.00
2017-05-08T16:04:29.181Z,10.00
2017-05-08T16:06:57.594Z,9.90
2017-05-08T16:09:25.612Z,9.90
2017-05-08T16:11:53.262Z,9.90
2017-05-08T16:14:20.909Z,9.80
2017-05-08T16:16:48.962Z,9.70
2017-05-08T16:19:16.596Z,9.60
2017-05-08T16:21:44.242Z,9.60
2017-05-08T16:24:12.837Z,9.70
2017-05-08T16:26:40.452Z,9.60
2017-05-08T16:29:08.104Z,9.60
2017-05-08T16:31:36.068Z,9.60
2017-05-08T16:34:03.724Z,9.50
2017-05-08T16:36:31.369Z,9.40
2017-05-08T16:38:59.435Z,9.40
2017-05-08T16:41:28.580Z,9.20
2017-05-08T16:43:56.980Z,9.30
2017-05-08T16:46:26.451Z,9.30
2017-05-08T16:48:54.229Z,9.30
2017-05-08T16:51:22.787Z,9.40
2017-05-08T16:53:51.676Z,9.50
2017-05-08T16:56:20.085Z,9.50
2017-05-08T16:58:48.520Z,9.50
2017-05-08T17:01:17.365Z,9.60
2017-05-08T17:03:45.012Z,9.50
2017-05-08T17:06:12.672Z,9.60
2017-05-08T17:08:40.714Z,9.60
2017-05-08T17:11:08.377Z,9.60
2017-05-08T17:13:36.799Z,9.60
2017-05-08T17:16:04.769Z,9.50
2017-05-08T17:18:32.412Z,9.60
2017-05-08T17:21:00.053Z,9.60
2017-05-08T17:23:28.019Z,9.70
2017-05-08T17:25:55.857Z,9.70
2017-05-08T17:28:24.290Z,9.70
2017-05-08T17:30:52.388Z,9.70
2017-05-08T17:33:20.034Z,9.70
2017-05-08T17:35:48.444Z,9.60
2017-05-08T17:38:17.199Z,9.70
2017-05-08T17:40:44.844Z,9.60
2017-05-08T17:43:12.489Z,9.70
2017-05-08T17:45:40.532Z,9.70
2017-05-08T17:48:08.200Z,9.70
2017-05-08T17:50:36.620Z,9.60
2017-05-08T17:53:04.576Z,9.60
2017-05-08T17:55:32.989Z,9.70
2017-05-08T17:58:01.406Z,9.60
2017-05-08T18:00:29.393Z,9.50
2017-05-08T18:02:57.038Z,9.60
2017-05-08T18:05:24.681Z,9.50
2017-05-08T18:07:52.630Z,9.50
2017-05-08T18:10:20.270Z,9.50
2017-05-08T18:12:49.429Z,8.90
2017-05-08T18:15:18.352Z,8.60
2017-05-08T18:17:45.984Z,8.60
2017-05-08T18:20:13.625Z,8.30
2017-05-08T18:22:42.387Z,7.80
2017-05-08T18:25:10.020Z,7.70
2017-05-08T18:27:37.661Z,7.70
2017-05-08T18:30:06.443Z,7.50
2017-05-08T18:32:34.089Z,7.50
2017-05-08T18:35:01.724Z,7.50
2017-05-08T18:37:30.441Z,7.40
2017-05-08T18:39:58.091Z,7.30
2017-05-08T18:42:26.620Z,7.30
2017-05-08T18:44:55.117Z,7.30
2017-05-08T18:47:22.761Z,7.30
2017-05-08T18:49:53.124Z,7.30
2017-05-08T18:52:21.103Z,7.30
2017-05-08T18:54:48.749Z,7.30
2017-05-08T18:57:16.408Z,7.20
2017-05-08T18:59:44.451Z,7.30
2017-05-08T19:02:12.095Z,7.30
2017-05-08T19:04:40.517Z,7.30
2017-05-08T19:07:09.391Z,7.20
2017-05-08T19:09:37.801Z,7.20
2017-05-08T19:12:05.446Z,7.20
2017-05-08T19:14:33.473Z,7.30
2017-05-08T19:17:02.001Z,7.00
2017-05-08T19:19:30.416Z,6.90
2017-05-08T19:21:59.229Z,6.90
2017-05-08T19:24:26.856Z,6.80
2017-05-08T19:26:55.293Z,6.80
2017-05-08T19:29:23.276Z,6.80
2017-05-08T19:31:50.901Z,6.80
2017-05-08T19:34:18.542Z,6.80
2017-05-08T19:36:46.520Z,6.70
2017-05-08T19:39:14.916Z,6.80
2017-05-08T19:41:42.557Z,6.70
2017-05-08T19:44:10.588Z,6.80
2017-05-08T19:46:38.353Z,6.80
2017-05-08T19:49:05.993Z,6.80
2017-05-08T19:51:34.873Z,6.80
2017-05-08T19:54:02.642Z,6.90
2017-05-08T19:56:31.131Z,6.80
2017-05-08T19:58:59.133Z,6.80
2017-05-08T20:01:27.537Z,6.80
2017-05-08T20:03:55.222Z,6.80
2017-05-08T20:06:23.193Z,6.80
2017-05-08T20:08:50.828Z,6.70
2017-05-08T20:11:19.324Z,6.80
2017-05-08T20:13:47.359Z,6.70
2017-05-08T20:16:15.787Z,6.80
2017-05-08T20:18:44.186Z,6.80
2017-05-08T20:21:12.197Z,6.80
2017-05-08T20:23:39.839Z,6.90
2017-05-08T20:26:07.477Z,6.90
2017-05-08T20:28:35.497Z,6.80
2017-05-08T20:31:03.132Z,6.80
2017-05-08T20:33:31.528Z,6.70
2017-05-08T20:35:59.567Z,6.60
2017-05-08T20:38:27.218Z,6.70
2017-05-08T20:40:54.852Z,6.80
2017-05-08T20:43:22.809Z,6.80
2017-05-08T20:45:50.443Z,6.70
2017-05-08T20:48:18.956Z,6.60
2017-05-08T20:50:47.352Z,6.60
2017-05-08T20:53:15.756Z,6.70
2017-05-08T20:55:43.388Z,6.60
2017-05-08T20:58:12.179Z,6.70
2017-05-08T21:00:39.815Z,6.60
2017-05-08T21:03:08.254Z,6.70
2017-05-08T21:05:36.229Z,6.60
2017-05-08T21:08:03.856Z,6.70
2017-05-08T21:10:31.487Z,6.70
2017-05-08T21:13:00.198Z,6.60
2017-05-08T21:15:27.833Z,6.50
2017-05-08T21:17:55.464Z,6.70
2017-05-08T21:20:23.461Z,6.70
2017-05-08T21:22:51.861Z,6.70
2017-05-08T21:25:20.258Z,6.70
2017-05-08T21:27:48.227Z,6.60
2017-05-08T21:30:15.873Z,6.70
2017-05-08T21:32:43.524Z,6.70
2017-05-08T21:35:11.568Z,6.70
2017-05-08T21:37:39.204Z,6.70
2017-05-08T21:40:06.906Z,6.70
2017-05-08T21:42:34.927Z,6.70
2017-05-08T21:45:02.557Z,6.60
2017-05-08T21:47:30.189Z,6.60
2017-05-08T21:49:58.125Z,6.60
2017-05-08T21:52:26.517Z,6.60
2017-05-08T21:54:54.922Z,6.50
2017-05-08T21:57:24.410Z,6.50
2017-05-08T21:59:52.069Z,6.50
2017-05-08T22:02:19.709Z,6.50
2017-05-08T22:04:47.636Z,6.50
2017-05-08T22:07:15.268Z,6.50
2017-05-08T22:09:42.896Z,6.50
2017-05-08T22:12:11.595Z,6.40
2017-05-08T22:14:39.992Z,6.40
2017-05-08T22:17:07.622Z,6.40
2017-05-08T22:19:35.601Z,6.40
2017-05-08T22:22:03.236Z,6.40
2017-05-08T22:24:30.859Z,6.20
2017-05-08T22:26:58.829Z,6.20
2017-05-08T22:29:26.594Z,6.20
2017-05-08T22:31:55.034Z,6.20
2017-05-08T22:34:23.797Z,6.30
2017-05-08T22:36:52.206Z,6.30
2017-05-08T22:39:20.606Z,6.20
2017-05-08T22:41:49.396Z,6.10
2017-05-08T22:44:17.847Z,6.10
2017-05-08T22:46:45.518Z,6.10
2017-05-08T22:49:13.441Z,6.20
2017-05-08T22:51:41.072Z,6.10
2017-05-08T22:54:08.733Z,6.00
2017-05-08T22:56:36.656Z,6.00
2017-05-08T22:59:05.059Z,5.90
2017-05-08T23:01:32.689Z,5.80
2017-05-08T23:04:00.673Z,5.90
2017-05-08T23:06:28.309Z,5.80
2017-05-08T23:08:55.941Z,5.90
2017-05-08T23:11:24.832Z,5.80
2017-05-08T23:13:52.484Z,5.70
2017-05-08T23:16:20.880Z,5.70
2017-05-08T23:18:48.805Z,5.60
2017-05-08T23:21:16.455Z,5.70
2017-05-08T23:23:44.089Z,5.60
2017-05-08T23:26:12.062Z,5.60
2017-05-08T23:28:39.754Z,5.60
2017-05-08T23:31:08.149Z,5.50
2017-05-08T23:33:36.116Z,5.50
2017-05-08T23:36:03.741Z,5.50
2017-05-08T23:38:31.372Z,5.50
2017-05-08T23:41:00.068Z,5.30
2017-05-08T23:43:27.705Z,5.20
2017-05-08T23:45:55.356Z,5.30
2017-05-08T23:48:23.320Z,5.30
2017-05-08T23:50:51.713Z,5.20
2017-05-08T23:53:20.120Z,5.20
2017-05-08T23:55:48.200Z,5.10
2017-05-08T23:58:16.606Z,5.20
